Time;durP1;ratioP1;P1;durP2;ratioP2;P2;SDS_P1;SDS_P2;PMS_P1;PMS_P2;Temp;Humidity;BMP_temperature;BMP_pressure;BME280_temperature;BME280_humidity;BME280_pressure;Samples;Min_cycle;Max_cycle;Signal;HPM_P1;HPM_P2
2023/01/08 00:00:44;;;;;;;4.32;3.28;;;9.50;99.90;;;;;;5054418;28;20178;-78
2023/01/08 00:03:10;;;;;;;4.43;3.10;;;9.40;99.90;;;;;;5052934;28;20123;-77
2023/01/08 00:05:36;;;;;;;4.45;3.22;;;9.60;99.90;;;;;;5053720;28;20712;-78
2023/01/08 00:08:02;;;;;;;4.35;3.15;;;9.60;99.90;;;;;;5053859;28;20028;-77
2023/01/08 00:10:27;;;;;;;3.63;2.72;;;9.60;99.90;;;;;;5071786;28;20124;-78
2023/01/08 00:12:54;;;;;;;5.07;3.42;;;9.60;99.90;;;;;;5052996;28;20129;-78
2023/01/08 00:15:20;;;;;;;4.53;3.22;;;9.60;99.90;;;;;;5053842;28;20094;-77
2023/01/08 00:17:46;;;;;;;4.32;2.95;;;9.40;99.90;;;;;;5071621;28;20118;-78
2023/01/08 00:20:11;;;;;;;4.82;3.47;;;9.50;99.90;;;;;;5053699;28;20044;-78
2023/01/08 00:22:37;;;;;;;6.15;3.28;;;9.50;99.90;;;;;;5053071;28;20127;-79
2023/01/08 00:25:03;;;;;;;5.75;3.58;;;9.50;99.90;;;;;;5053391;28;20156;-77
2023/01/08 00:27:28;;;;;;;4.10;2.88;;;9.50;99.90;;;;;;5053749;28;20086;-78
2023/01/08 00:29:54;;;;;;;5.32;3.38;;;9.40;99.90;;;;;;5053909;28;20059;-78
2023/01/08 00:32:19;;;;;;;4.78;2.92;;;9.50;99.90;;;;;;5070740;28;20047;-78
2023/01/08 00:34:45;;;;;;;4.30;3.33;;;9.50;99.90;;;;;;5052938;28;20035;-79
2023/01/08 00:37:11;;;;;;;5.15;3.10;;;9.60;99.90;;;;;;5053338;28;20044;-78
2023/01/08 00:39:36;;;;;;;4.75;3.47;;;9.40;99.90;;;;;;5071219;28;20037;-78
2023/01/08 00:42:02;;;;;;;4.40;3.20;;;9.60;99.90;;;;;;5053537;28;20173;-78
2023/01/08 00:44:27;;;;;;;4.35;3.25;;;9.60;99.90;;;;;;5052442;28;20494;-78
2023/01/08 00:46:53;;;;;;;3.95;3.20;;;9.60;99.90;;;;;;5053024;28;20543;-78
2023/01/08 00:49:18;;;;;;;4.57;3.30;;;9.50;99.90;;;;;;5053235;28;20040;-78
2023/01/08 00:51:44;;;;;;;4.25;3.50;;;9.60;99.90;;;;;;5053158;28;20521;-78
2023/01/08 00:54:10;;;;;;;3.33;2.95;;;9.50;99.90;;;;;;5052774;28;20040;-78
2023/01/08 00:56:36;;;;;;;3.92;2.78;;;9.60;99.90;;;;;;5049844;28;20380;-78
2023/01/08 00:59:01;;;;;;;6.72;3.42;;;9.40;99.90;;;;;;5062336;22;20044;-74
2023/01/08 01:01:27;;;;;;;4.03;3.28;;;9.60;99.90;;;;;;5035692;28;20064;-75
2023/01/08 01:03:52;;;;;;;5.95;3.38;;;9.40;99.90;;;;;;5019329;28;20127;-76
2023/01/08 01:06:18;;;;;;;5.05;2.90;;;9.50;99.90;;;;;;5020969;28;20502;-75
2023/01/08 01:08:44;;;;;;;4.43;3.00;;;9.60;99.90;;;;;;5045634;28;20036;-75
2023/01/08 01:11:16;;;;;;;4.20;3.00;;;9.60;99.90;;;;;;5056845;28;20037;-75
2023/01/08 01:13:42;;;;;;;5.20;2.93;;;9.50;99.90;;;;;;5056624;28;20043;-75
2023/01/08 01:16:08;;;;;;;3.25;2.78;;;9.70;99.90;;;;;;5057441;28;20127;-75
2023/01/08 01:18:33;;;;;;;7.05;3.15;;;9.60;99.90;;;;;;5040057;28;20135;-75
2023/01/08 01:20:59;;;;;;;5.47;2.40;;;9.70;99.90;;;;;;5057267;28;20085;-75
2023/01/08 01:23:24;;;;;;;4.07;2.92;;;9.70;99.90;;;;;;5039596;28;20047;-75
2023/01/08 01:25:50;;;;;;;6.85;3.03;;;9.50;99.90;;;;;;5056875;28;20036;-75
2023/01/08 01:28:15;;;;;;;5.63;3.35;;;9.70;99.90;;;;;;5039785;28;20040;-75
2023/01/08 01:30:41;;;;;;;7.07;3.47;;;9.50;99.90;;;;;;5056606;28;20045;-74
2023/01/08 01:33:07;;;;;;;6.32;3.55;;;9.60;99.90;;;;;;5056039;28;20075;-75
2023/01/08 01:35:32;;;;;;;3.55;3.10;;;9.70;99.90;;;;;;5056729;28;20051;-75
2023/01/08 01:37:58;;;;;;;5.13;3.35;;;9.50;99.90;;;;;;5039881;28;20047;-75
2023/01/08 01:40:23;;;;;;;8.88;3.63;;;9.50;99.90;;;;;;5056698;28;20089;-75
2023/01/08 01:42:49;;;;;;;8.20;3.78;;;9.50;99.90;;;;;;5055806;28;20052;-75
2023/01/08 01:45:23;;;;;;;4.93;3.47;;;9.60;99.90;;;;;;5056786;28;20052;-75
2023/01/08 01:47:53;;;;;;;5.38;4.18;;;9.50;99.90;;;;;;5074197;28;20179;-75
2023/01/08 01:50:23;;;;;;;8.63;3.80;;;9.50;99.90;;;;;;5056229;28;20060;-76
2023/01/08 01:52:54;;;;;;;5.40;3.65;;;9.50;99.90;;;;;;5055538;28;20133;-76
2023/01/08 01:55:19;;;;;;;5.55;3.53;;;9.60;99.90;;;;;;5039948;28;20072;-75
2023/01/08 01:57:50;;;;;;;5.47;3.63;;;9.50;99.90;;;;;;5039256;28;20079;-76
2023/01/08 02:00:16;;;;;;;7.57;3.45;;;9.50;99.90;;;;;;5056312;28;20079;-75
2023/01/08 02:02:42;;;;;;;5.32;2.97;;;9.50;99.90;;;;;;5055395;28;20099;-75
2023/01/08 02:05:08;;;;;;;4.10;2.92;;;9.60;99.90;;;;;;5056482;28;20479;-76
2023/01/08 02:07:54;;;;;;;4.13;2.70;;;9.70;99.90;;;;;;5056451;28;20490;-76
2023/01/08 02:10:35;;;;;;;4.57;2.20;;;9.60;99.90;;;;;;5055924;28;20506;-76
2023/01/08 02:13:08;;;;;;;2.92;2.03;;;9.50;99.90;;;;;;5038709;28;20037;-76
2023/01/08 02:15:41;;;;;;;4.28;1.98;;;9.60;99.90;;;;;;5056648;28;20128;-77
2023/01/08 02:18:08;;;;;;;3.88;1.95;;;9.40;99.90;;;;;;5056250;28;20437;-76
2023/01/08 02:20:38;;;;;;;3.33;1.58;;;9.40;99.90;;;;;;5039571;28;20093;-76
2023/01/08 02:23:25;;;;;;;4.47;2.20;;;9.40;99.90;;;;;;5055258;28;20085;-76
2023/01/08 02:26:32;;;;;;;9.07;2.63;;;9.40;99.90;;;;;;5055817;28;20123;-76
2023/01/08 02:29:08;;;;;;;5.40;1.30;;;9.40;99.90;;;;;;5047857;28;20071;-76
2023/01/08 02:31:37;;;;;;;5.15;1.70;;;9.40;99.90;;;;;;5039388;28;20040;-76
2023/01/08 02:34:03;;;;;;;6.90;1.88;;;9.40;99.90;;;;;;5055380;28;20115;-76
2023/01/08 02:36:45;;;;;;;7.22;1.95;;;9.40;99.90;;;;;;5040379;28;20097;-76
2023/01/08 02:39:13;;;;;;;4.78;1.80;;;9.20;99.90;;;;;;5055798;28;20036;-76
2023/01/08 02:42:03;;;;;;;7.15;2.45;;;9.20;99.90;;;;;;5039424;28;20135;-75
2023/01/08 02:44:53;;;;;;;7.15;1.70;;;9.30;99.90;;;;;;5038624;28;20041;-76
2023/01/08 02:47:50;;;;;;;7.05;1.80;;;9.20;99.90;;;;;;5055955;28;20048;-76
2023/01/08 02:50:30;;;;;;;7.05;2.00;;;9.20;99.90;;;;;;5055552;28;20487;-76
2023/01/08 02:53:38;;;;;;;7.50;1.80;;;9.20;99.90;;;;;;5054813;28;20051;-76
2023/01/08 02:56:08;;;;;;;8.55;2.38;;;9.10;99.90;;;;;;5055471;28;20068;-76
2023/01/08 02:58:36;;;;;;;9.85;1.95;;;9.00;99.90;;;;;;5055071;28;20051;-76
2023/01/08 03:01:03;;;;;;;6.35;1.52;;;9.00;99.90;;;;;;5055187;28;20175;-76
2023/01/08 03:03:30;;;;;;;5.07;1.77;;;9.10;99.90;;;;;;5038061;28;20045;-76
2023/01/08 03:06:03;;;;;;;6.25;2.38;;;9.00;99.90;;;;;;5038333;28;20048;-76
2023/01/08 03:08:31;;;;;;;9.55;1.45;;;9.10;99.90;;;;;;5055056;28;20212;-77
2023/01/08 03:11:04;;;;;;;8.23;2.30;;;9.00;99.90;;;;;;5055107;28;20040;-76
2023/01/08 03:13:46;;;;;;;7.45;1.80;;;9.00;99.90;;;;;;5037802;28;20043;-76
2023/01/08 03:16:29;;;;;;;10.80;1.95;;;9.00;99.90;;;;;;5038300;28;20041;-76
2023/01/08 03:19:15;;;;;;;9.50;2.17;;;8.90;99.90;;;;;;5054708;28;20090;-76
2023/01/08 03:21:42;;;;;;;6.95;1.73;;;8.90;99.90;;;;;;5036749;28;20051;-76
2023/01/08 03:24:10;;;;;;;10.85;2.40;;;8.80;99.90;;;;;;5053951;28;20093;-76
2023/01/08 03:26:37;;;;;;;6.07;1.83;;;8.80;99.90;;;;;;5054706;28;20048;-76
2023/01/08 03:29:04;;;;;;;5.53;2.22;;;9.00;99.90;;;;;;5054494;28;20032;-76
2023/01/08 03:31:33;;;;;;;7.43;2.38;;;8.90;99.90;;;;;;5038038;28;20040;-76
2023/01/08 03:34:00;;;;;;;7.57;2.20;;;8.80;99.90;;;;;;5037117;28;20044;-76
2023/01/08 03:36:28;;;;;;;6.88;2.00;;;8.80;99.90;;;;;;5054442;28;20391;-76
2023/01/08 03:39:00;;;;;;;9.52;1.67;;;8.80;99.90;;;;;;5054687;28;20093;-76
2023/01/08 03:41:35;;;;;;;5.72;2.00;;;8.80;99.90;;;;;;5089279;27;20385;-75
2023/01/08 03:44:01;;;;;;;6.45;1.67;;;8.70;99.90;;;;;;5121065;28;20036;-75
2023/01/08 03:46:54;;;;;;;5.80;1.88;;;8.70;99.90;;;;;;5122050;28;20040;-75
2023/01/08 03:49:23;;;;;;;6.73;1.70;;;8.80;99.90;;;;;;5087597;28;20113;-75
2023/01/08 03:51:49;;;;;;;6.65;2.42;;;8.80;99.90;;;;;;5067441;28;20275;-75
2023/01/08 03:54:20;;;;;;;8.68;1.95;;;8.70;99.90;;;;;;5066570;28;20041;-75
2023/01/08 03:56:46;;;;;;;13.18;2.47;;;8.80;99.90;;;;;;5101158;28;20076;-75
2023/01/08 03:59:13;;;;;;;7.78;2.05;;;8.60;99.90;;;;;;5067192;28;20075;-75
2023/01/08 04:01:39;;;;;;;5.55;1.90;;;8.70;99.90;;;;;;5066667;28;20120;-75
2023/01/08 04:04:05;;;;;;;5.85;1.73;;;8.60;99.90;;;;;;5100116;28;20040;-75
2023/01/08 04:06:31;;;;;;;7.07;1.70;;;8.70;99.90;;;;;;5101180;28;20064;-75
2023/01/08 04:08:57;;;;;;;5.90;1.60;;;8.60;99.90;;;;;;5100784;28;20072;-75
2023/01/08 04:11:22;;;;;;;6.40;2.35;;;8.50;99.90;;;;;;5067088;28;20044;-75
2023/01/08 04:13:48;;;;;;;7.07;2.47;;;8.50;99.90;;;;;;5066394;28;20040;-75
2023/01/08 04:16:13;;;;;;;8.32;2.22;;;8.70;99.90;;;;;;5067207;28;20048;-75
2023/01/08 04:18:39;;;;;;;6.03;2.03;;;8.50;99.90;;;;;;5066684;28;20499;-75
2023/01/08 04:21:04;;;;;;;9.10;1.98;;;8.70;99.90;;;;;;5066703;28;20095;-75
2023/01/08 04:23:30;;;;;;;9.45;2.58;;;8.60;99.90;;;;;;5066136;28;20273;-75
2023/01/08 04:25:56;;;;;;;7.55;2.20;;;8.50;99.90;;;;;;5067060;28;20045;-75
2023/01/08 04:28:21;;;;;;;6.68;2.72;;;8.50;99.90;;;;;;5066569;28;20632;-75
2023/01/08 04:30:47;;;;;;;7.03;2.60;;;8.50;99.90;;;;;;5049980;28;20128;-75
2023/01/08 04:33:12;;;;;;;3.45;2.22;;;8.50;99.90;;;;;;5066170;28;20102;-75
2023/01/08 04:35:38;;;;;;;6.15;2.50;;;8.70;99.90;;;;;;5066660;28;20127;-75
2023/01/08 04:38:03;;;;;;;5.82;2.80;;;8.60;99.90;;;;;;5066780;28;20049;-75
2023/01/08 04:40:32;;;;;;;6.60;3.47;;;8.70;99.90;;;;;;5066055;28;20045;-75
2023/01/08 04:42:58;;;;;;;7.15;2.88;;;8.70;99.90;;;;;;5099519;28;20033;-75
2023/01/08 04:45:23;;;;;;;5.82;3.15;;;8.80;99.90;;;;;;5049684;28;20484;-75
2023/01/08 04:47:58;;;;;;;6.60;3.03;;;8.90;99.90;;;;;;5049644;28;20037;-75
2023/01/08 04:50:24;;;;;;;3.67;2.95;;;8.70;99.90;;;;;;5066238;28;20044;-75
2023/01/08 04:52:50;;;;;;;10.95;3.35;;;8.70;99.90;;;;;;5086340;28;20048;-75
2023/01/08 04:55:15;;;;;;;6.57;3.58;;;8.90;99.90;;;;;;5035641;28;20060;-75
2023/01/08 04:57:41;;;;;;;7.10;3.20;;;8.90;99.90;;;;;;5052786;28;20084;-75
2023/01/08 05:00:07;;;;;;;6.18;2.97;;;8.90;99.90;;;;;;5052931;28;20041;-75
2023/01/08 05:02:33;;;;;;;4.90;2.90;;;8.70;99.90;;;;;;5035695;28;20503;-75
2023/01/08 05:04:59;;;;;;;6.05;3.55;;;8.80;99.90;;;;;;5053151;28;20052;-75
2023/01/08 05:07:25;;;;;;;5.38;2.55;;;8.90;99.90;;;;;;5052734;28;20037;-75
2023/01/08 05:09:51;;;;;;;7.63;2.85;;;8.90;99.90;;;;;;5086243;28;20041;-75
2023/01/08 05:12:16;;;;;;;4.47;2.70;;;8.70;99.90;;;;;;5052369;28;20045;-75
2023/01/08 05:14:42;;;;;;;4.35;2.50;;;9.00;99.90;;;;;;5052454;28;20037;-75
2023/01/08 05:17:07;;;;;;;5.30;2.65;;;9.00;99.90;;;;;;5052841;28;20048;-75
2023/01/08 05:19:33;;;;;;;5.70;2.72;;;8.80;99.90;;;;;;5052404;28;20047;-75
2023/01/08 05:21:58;;;;;;;5.80;3.65;;;9.00;99.90;;;;;;5052717;28;20049;-75
2023/01/08 05:24:24;;;;;;;8.55;5.28;;;9.00;99.90;;;;;;5035103;28;20044;-74
2023/01/08 05:26:49;;;;;;;5.45;2.58;;;8.80;99.90;;;;;;5036122;28;20041;-74
2023/01/08 05:29:15;;;;;;;6.43;2.90;;;8.80;99.90;;;;;;5052328;28;20037;-75
2023/01/08 05:31:41;;;;;;;4.28;2.58;;;8.90;99.90;;;;;;5085931;28;20033;-75
2023/01/08 05:34:06;;;;;;;4.93;2.20;;;9.00;99.90;;;;;;5051563;28;20033;-74
2023/01/08 05:36:32;;;;;;;3.58;2.15;;;8.90;99.90;;;;;;5035816;28;20037;-74
2023/01/08 05:38:57;;;;;;;9.25;2.33;;;8.80;99.90;;;;;;5051989;28;20034;-74
2023/01/08 05:41:23;;;;;;;3.95;2.28;;;8.90;99.90;;;;;;5051969;28;20045;-75
2023/01/08 05:43:48;;;;;;;8.18;4.45;;;9.00;99.90;;;;;;5051218;28;20032;-75
2023/01/08 05:46:14;;;;;;;5.03;3.85;;;9.00;99.90;;;;;;5052178;28;20105;-75
2023/01/08 05:48:40;;;;;;;5.82;2.40;;;8.80;99.90;;;;;;5051853;28;20041;-75
2023/01/08 05:51:05;;;;;;;4.90;1.88;;;8.80;99.90;;;;;;5051973;28;20047;-74
2023/01/08 05:53:31;;;;;;;4.47;2.03;;;9.00;99.90;;;;;;5051022;28;20045;-74
2023/01/08 05:56:02;;;;;;;4.65;1.98;;;8.90;99.90;;;;;;5051398;28;20104;-74
2023/01/08 05:58:28;;;;;;;4.43;1.95;;;8.80;99.90;;;;;;5051624;28;20060;-74
2023/01/08 06:00:54;;;;;;;9.07;2.30;;;8.70;99.90;;;;;;5051744;28;20064;-74
2023/01/08 06:03:21;;;;;;;3.80;2.17;;;8.90;99.90;;;;;;5049917;28;20159;-74
2023/01/08 06:05:46;;;;;;;3.33;1.90;;;8.70;99.90;;;;;;5051666;28;20045;-74
2023/01/08 06:08:12;;;;;;;8.05;2.72;;;8.90;99.90;;;;;;5051429;28;20048;-74
2023/01/08 06:10:38;;;;;;;4.35;1.90;;;8.70;99.90;;;;;;5051561;28;20044;-74
2023/01/08 06:13:08;;;;;;;3.50;2.00;;;8.80;99.90;;;;;;5034176;28;20041;-74
2023/01/08 06:15:33;;;;;;;4.82;2.05;;;8.60;99.90;;;;;;5051551;28;20052;-74
2023/01/08 06:18:03;;;;;;;3.20;1.83;;;8.60;99.90;;;;;;5034754;28;20044;-74
2023/01/08 06:20:28;;;;;;;7.25;2.03;;;8.60;99.90;;;;;;5051455;28;20091;-75
2023/01/08 06:22:54;;;;;;;3.97;2.20;;;8.50;99.90;;;;;;5050535;28;20045;-75
2023/01/08 06:25:20;;;;;;;5.43;2.63;;;8.70;99.90;;;;;;5051302;28;20033;-74
2023/01/08 06:27:50;;;;;;;6.18;2.28;;;8.80;99.90;;;;;;5051181;28;20076;-75
2023/01/08 06:30:16;;;;;;;4.50;2.50;;;8.80;99.90;;;;;;5034976;28;20148;-74
2023/01/08 06:32:41;;;;;;;9.23;2.80;;;8.70;99.90;;;;;;5050399;28;20534;-74
2023/01/08 06:35:07;;;;;;;5.47;2.20;;;8.60;99.90;;;;;;5051127;28;20037;-74
2023/01/08 06:37:33;;;;;;;8.52;2.75;;;8.80;99.90;;;;;;5051004;28;20037;-75
2023/01/08 06:39:58;;;;;;;4.32;2.28;;;8.70;99.90;;;;;;5050798;28;20041;-74
2023/01/08 06:42:24;;;;;;;4.78;2.40;;;8.90;99.90;;;;;;5050376;28;20041;-75
2023/01/08 06:44:50;;;;;;;4.38;2.70;;;8.90;99.90;;;;;;5050890;28;20028;-74
2023/01/08 06:47:15;;;;;;;4.43;2.67;;;8.90;99.90;;;;;;5034249;28;20079;-75
2023/01/08 06:49:41;;;;;;;5.90;2.88;;;8.70;99.90;;;;;;5051053;28;20052;-75
2023/01/08 06:52:06;;;;;;;6.57;3.05;;;8.80;99.90;;;;;;5050741;28;20049;-75
2023/01/08 06:54:32;;;;;;;4.55;3.03;;;8.80;99.90;;;;;;5050265;28;20052;-75
2023/01/08 06:56:57;;;;;;;7.68;2.85;;;8.80;99.90;;;;;;5034107;28;20565;-74
2023/01/08 06:59:23;;;;;;;5.43;3.10;;;8.70;99.90;;;;;;5035025;22;20046;-69
2023/01/08 07:01:49;;;;;;;6.50;2.80;;;8.80;99.90;;;;;;4992482;28;20061;-70
2023/01/08 07:04:15;;;;;;;8.82;4.32;;;8.80;99.90;;;;;;4973952;28;20409;-70
2023/01/08 07:06:40;;;;;;;7.03;2.72;;;8.70;99.90;;;;;;4992823;28;20034;-70
2023/01/08 07:09:06;;;;;;;12.25;3.28;;;8.50;99.90;;;;;;5002964;28;20038;-69
2023/01/08 07:11:32;;;;;;;5.25;2.83;;;8.70;99.90;;;;;;5012255;28;20431;-70
2023/01/08 07:13:58;;;;;;;6.28;2.70;;;8.50;99.90;;;;;;5011153;28;20130;-70
2023/01/08 07:16:23;;;;;;;4.63;2.60;;;8.60;99.90;;;;;;5010549;28;20133;-70
2023/01/08 07:18:49;;;;;;;4.47;2.92;;;8.50;99.90;;;;;;4994677;28;20734;-70
2023/01/08 07:21:15;;;;;;;5.72;2.55;;;8.60;99.90;;;;;;5009947;28;20568;-70
2023/01/08 07:23:40;;;;;;;4.82;2.67;;;8.50;99.90;;;;;;5009372;28;20116;-70
2023/01/08 07:26:07;;;;;;;5.60;2.20;;;8.50;99.90;;;;;;5010820;28;20495;-70
2023/01/08 07:28:33;;;;;;;9.10;2.70;;;8.60;99.90;;;;;;5011832;28;20038;-70
2023/01/08 07:31:02;;;;;;;7.90;2.45;;;8.40;99.90;;;;;;5011841;28;20472;-69
2023/01/08 07:33:28;;;;;;;7.38;2.33;;;8.40;99.90;;;;;;5011110;28;20441;-70
2023/01/08 07:35:54;;;;;;;6.95;1.85;;;8.50;99.90;;;;;;5012124;28;20084;-69
2023/01/08 07:38:20;;;;;;;6.45;2.20;;;8.50;99.90;;;;;;5011980;28;20187;-70
2023/01/08 07:40:46;;;;;;;6.75;2.60;;;8.50;99.90;;;;;;5011810;28;20506;-69
2023/01/08 07:43:11;;;;;;;4.75;2.22;;;8.40;99.90;;;;;;5010802;28;20038;-70
2023/01/08 07:45:37;;;;;;;13.55;2.30;;;8.30;99.90;;;;;;4994060;28;20041;-70
2023/01/08 07:48:04;;;;;;;5.90;2.33;;;8.20;99.90;;;;;;5010461;28;20116;-69
2023/01/08 07:50:30;;;;;;;9.38;3.42;;;8.20;99.90;;;;;;5010489;28;20045;-70
2023/01/08 07:52:59;;;;;;;8.48;3.05;;;8.30;99.90;;;;;;5009452;28;20104;-69
2023/01/08 07:55:27;;;;;;;8.90;2.25;;;8.40;99.90;;;;;;5010387;28;20447;-69
2023/01/08 07:57:52;;;;;;;4.43;2.10;;;8.40;99.90;;;;;;5010437;28;20500;-69
2023/01/08 08:00:18;;;;;;;5.03;1.55;;;8.10;99.90;;;;;;5011318;28;20040;-70
2023/01/08 08:02:44;;;;;;;5.05;2.50;;;8.30;99.90;;;;;;5010655;28;20381;-69
2023/01/08 08:05:09;;;;;;;7.05;2.80;;;8.20;99.90;;;;;;5011531;28;20042;-69
2023/01/08 08:07:35;;;;;;;5.53;2.28;;;8.10;99.90;;;;;;5011598;28;20081;-69
2023/01/08 08:10:01;;;;;;;5.45;2.05;;;8.10;99.90;;;;;;5010435;28;20080;-70
2023/01/08 08:12:27;;;;;;;4.65;2.70;;;8.00;99.90;;;;;;5009746;28;20419;-69
2023/01/08 08:14:52;;;;;;;5.95;3.30;;;8.00;99.90;;;;;;5010180;28;20042;-69
2023/01/08 08:17:18;;;;;;;12.40;4.38;;;8.20;99.90;;;;;;5010191;28;20042;-69
2023/01/08 08:19:44;;;;;;;8.93;3.33;;;7.90;99.90;;;;;;5011443;28;20045;-70
2023/01/08 08:22:11;;;;;;;9.82;3.63;;;8.10;99.90;;;;;;5010359;28;20100;-69
2023/01/08 08:24:36;;;;;;;12.32;4.25;;;8.00;99.90;;;;;;5009493;28;20117;-69
2023/01/08 08:27:02;;;;;;;10.07;4.00;;;8.00;99.90;;;;;;5013104;28;20114;-69
2023/01/08 08:29:27;;;;;;;8.95;3.28;;;8.00;99.90;;;;;;5013871;28;20496;-69
2023/01/08 08:31:53;;;;;;;9.73;3.20;;;8.00;99.90;;;;;;5013787;28;20042;-70
2023/01/08 08:34:21;;;;;;;15.30;4.30;;;7.90;99.90;;;;;;5014428;28;20045;-70
2023/01/08 08:36:47;;;;;;;9.25;3.60;;;8.10;99.90;;;;;;5015168;28;20440;-69
2023/01/08 08:39:13;;;;;;;7.10;3.47;;;8.00;99.90;;;;;;5005088;28;20042;-69
2023/01/08 08:41:38;;;;;;;7.50;3.33;;;7.90;99.90;;;;;;4994891;28;20045;-68
2023/01/08 08:44:04;;;;;;;6.10;3.13;;;7.90;99.90;;;;;;4994259;28;20073;-69
2023/01/08 08:46:30;;;;;;;7.72;3.15;;;8.00;99.90;;;;;;4994801;28;20471;-68
2023/01/08 08:48:55;;;;;;;6.90;2.92;;;8.20;99.90;;;;;;4993627;28;20042;-69
2023/01/08 08:51:21;;;;;;;7.00;2.55;;;8.10;99.90;;;;;;4993424;28;20039;-68
2023/01/08 08:53:46;;;;;;;7.07;2.70;;;8.10;99.90;;;;;;4993970;28;20050;-69
2023/01/08 08:56:12;;;;;;;10.23;2.70;;;8.20;99.90;;;;;;4977470;28;20046;-69
2023/01/08 08:58:40;;;;;;;8.18;2.83;;;8.10;99.90;;;;;;4994687;28;20046;-69
2023/01/08 09:01:07;;;;;;;9.75;2.83;;;8.30;99.90;;;;;;5009922;28;20451;-69
2023/01/08 09:03:33;;;;;;;9.65;2.88;;;8.20;99.90;;;;;;5013136;28;20041;-69
2023/01/08 09:05:58;;;;;;;5.93;2.65;;;8.40;99.90;;;;;;5012588;28;20116;-70
2023/01/08 09:08:24;;;;;;;7.57;2.60;;;8.40;99.90;;;;;;5013605;28;20129;-69
2023/01/08 09:10:49;;;;;;;4.10;2.20;;;8.20;99.90;;;;;;5012502;28;20120;-70
2023/01/08 09:13:15;;;;;;;12.90;2.70;;;8.20;99.90;;;;;;5012921;28;20037;-70
2023/01/08 09:15:40;;;;;;;7.90;2.85;;;8.30;99.90;;;;;;5012040;28;20061;-69
2023/01/08 09:18:06;;;;;;;9.00;3.08;;;8.50;99.90;;;;;;5012194;28;20121;-69
2023/01/08 09:20:31;;;;;;;8.57;2.90;;;8.30;99.90;;;;;;5013585;28;20138;-70
2023/01/08 09:22:58;;;;;;;7.68;2.75;;;8.40;99.90;;;;;;5012976;28;20069;-68
2023/01/08 09:25:24;;;;;;;11.07;2.40;;;8.40;99.90;;;;;;5011978;28;20076;-68
2023/01/08 09:27:58;;;;;;;14.23;2.60;;;8.40;99.90;;;;;;5013195;28;20507;-68
2023/01/08 09:30:23;;;;;;;8.20;2.63;;;8.40;99.90;;;;;;5012030;28;20555;-69
2023/01/08 09:32:49;;;;;;;8.65;3.45;;;8.50;99.90;;;;;;5012515;28;20125;-69
2023/01/08 09:35:14;;;;;;;8.43;2.50;;;8.50;99.90;;;;;;5011970;28;20038;-68
2023/01/08 09:37:40;;;;;;;7.82;3.45;;;8.60;99.90;;;;;;5013141;28;20106;-68
2023/01/08 09:40:06;;;;;;;10.52;2.40;;;8.60;99.90;;;;;;5011719;28;20048;-68
2023/01/08 09:42:33;;;;;;;11.23;3.63;;;8.60;99.90;;;;;;5012082;28;20041;-68
2023/01/08 09:45:00;;;;;;;7.88;2.67;;;8.60;99.90;;;;;;5013178;28;20044;-68
2023/01/08 09:47:31;;;;;;;5.63;2.17;;;8.50;99.90;;;;;;4995699;28;20045;-69
2023/01/08 09:50:00;;;;;;;8.35;1.88;;;8.60;99.90;;;;;;5011357;28;20056;-69
2023/01/08 09:52:27;;;;;;;7.85;1.77;;;8.60;99.90;;;;;;5010961;28;20370;-70
2023/01/08 09:54:53;;;;;;;4.70;1.98;;;8.60;99.90;;;;;;5012671;28;20050;-69
2023/01/08 09:57:20;;;;;;;9.05;2.10;;;8.70;99.90;;;;;;5013019;28;20472;-69
2023/01/08 09:59:47;;;;;;;10.93;2.30;;;8.80;99.90;;;;;;5011389;28;20080;-68
2023/01/08 10:02:24;;;;;;;6.07;2.08;;;8.60;99.90;;;;;;5012745;28;20034;-69
2023/01/08 10:04:58;;;;;;;10.18;2.70;;;8.70;99.90;;;;;;5012959;28;20037;-70
2023/01/08 10:07:26;;;;;;;5.68;1.98;;;8.60;99.90;;;;;;5011421;28;20104;-69
2023/01/08 10:09:53;;;;;;;6.88;1.70;;;8.80;99.90;;;;;;5012416;28;20046;-70
2023/01/08 10:12:30;;;;;;;9.35;3.00;;;8.80;99.90;;;;;;5010729;28;20451;-69
2023/01/08 10:15:00;;;;;;;14.60;2.72;;;8.70;99.90;;;;;;5011404;28;20177;-69
2023/01/08 10:17:33;;;;;;;7.82;2.47;;;8.70;99.90;;;;;;5006765;28;20061;-69
2023/01/08 10:19:58;;;;;;;7.63;1.67;;;8.90;99.90;;;;;;4967578;28;20286;-69
2023/01/08 10:22:30;;;;;;;6.97;2.22;;;8.80;99.90;;;;;;4970368;28;20990;-68
2023/01/08 10:25:15;;;;;;;9.75;1.70;;;8.90;99.90;;;;;;4970899;28;20220;-68
2023/01/08 10:27:59;;;;;;;6.55;1.85;;;8.90;99.90;;;;;;4971768;28;20080;-69
2023/01/08 10:30:37;;;;;;;9.68;3.20;;;8.70;99.90;;;;;;4970895;28;20226;-68
2023/01/08 10:33:08;;;;;;;8.15;1.88;;;8.90;99.90;;;;;;4971474;28;20038;-69
2023/01/08 10:35:37;;;;;;;8.10;2.08;;;8.90;99.90;;;;;;4971596;28;20244;-69
2023/01/08 10:38:03;;;;;;;5.60;2.00;;;9.10;99.90;;;;;;4970751;28;20381;-69
2023/01/08 10:40:33;;;;;;;8.85;2.40;;;9.00;99.90;;;;;;4971551;28;20855;-68
2023/01/08 10:43:25;;;;;;;10.20;2.20;;;9.00;99.90;;;;;;4971922;28;20046;-68
2023/01/08 10:46:00;;;;;;;8.82;2.85;;;9.00;99.90;;;;;;4955579;28;20050;-68
2023/01/08 10:48:35;;;;;;;11.95;2.50;;;9.00;99.90;;;;;;4967693;28;20038;-69
2023/01/08 10:51:25;;;;;;;11.95;2.97;;;9.10;99.90;;;;;;4967475;28;20145;-68
2023/01/08 10:53:53;;;;;;;7.25;1.90;;;9.10;99.90;;;;;;4971803;28;20227;-68
2023/01/08 10:56:21;;;;;;;13.90;2.42;;;9.10;99.90;;;;;;4967463;28;20052;-68
2023/01/08 10:58:47;;;;;;;8.43;2.40;;;9.20;99.90;;;;;;4970283;28;20099;-68
2023/01/08 11:01:27;;;;;;;23.38;5.00;;;9.20;99.90;;;;;;4969895;28;20713;-69
2023/01/08 11:03:59;;;;;;;7.35;1.92;;;9.30;99.90;;;;;;4953498;28;20045;-69
2023/01/08 11:06:33;;;;;;;12.73;2.22;;;9.30;99.90;;;;;;4956313;28;20220;-68
2023/01/08 11:09:14;;;;;;;14.25;3.17;;;9.30;99.90;;;;;;4971941;28;20232;-69
2023/01/08 11:11:40;;;;;;;9.43;2.17;;;9.30;99.90;;;;;;4970216;28;20140;-69
2023/01/08 11:14:29;;;;;;;8.32;1.98;;;9.30;99.90;;;;;;4968491;28;20068;-69
2023/01/08 11:16:56;;;;;;;4.65;2.08;;;9.30;99.90;;;;;;4970712;28;20045;-69
2023/01/08 11:19:25;;;;;;;9.55;1.88;;;9.30;99.90;;;;;;4969886;28;20057;-69
2023/01/08 11:21:56;;;;;;;11.32;2.50;;;9.30;99.90;;;;;;4969180;28;20144;-70
2023/01/08 11:24:28;;;;;;;7.38;2.33;;;9.40;99.90;;;;;;4969449;28;20095;-69
2023/01/08 11:27:24;;;;;;;16.63;1.92;;;9.30;99.90;;;;;;4955503;28;20042;-69
2023/01/08 11:29:58;;;;;;;9.77;1.80;;;9.40;99.90;;;;;;4950452;28;20844;-69
2023/01/08 11:32:47;;;;;;;8.95;2.40;;;9.40;99.90;;;;;;4951381;28;20497;-66
2023/01/08 11:35:18;;;;;;;7.40;2.22;;;9.30;99.90;;;;;;4951113;28;20137;-69
2023/01/08 11:37:50;;;;;;;5.22;2.63;;;9.30;99.90;;;;;;4951757;28;20046;-69
2023/01/08 11:40:39;;;;;;;10.73;2.60;;;9.40;99.90;;;;;;4950572;28;20093;-69
2023/01/08 11:43:29;;;;;;;8.60;2.72;;;9.40;99.90;;;;;;4951908;28;20606;-69
2023/01/08 11:46:02;;;;;;;7.55;1.75;;;9.30;99.90;;;;;;4950380;28;20279;-69
2023/01/08 11:48:42;;;;;;;6.85;1.67;;;9.40;99.90;;;;;;4950832;28;20042;-69
2023/01/08 11:51:35;;;;;;;6.00;2.15;;;9.50;99.90;;;;;;4948437;28;20050;-69
2023/01/08 11:54:06;;;;;;;8.45;2.03;;;9.50;99.90;;;;;;4950101;28;20053;-69
2023/01/08 11:56:56;;;;;;;11.27;1.95;;;9.60;99.90;;;;;;4950886;28;20081;-69
2023/01/08 11:59:35;;;;;;;14.30;2.85;;;9.50;99.90;;;;;;4948783;28;21000;-69
2023/01/08 12:02:38;;;;;;;9.98;1.85;;;9.50;99.90;;;;;;4948977;28;20043;-69
2023/01/08 12:05:45;;;;;;;7.68;2.20;;;9.50;99.90;;;;;;4956337;28;20054;-69
2023/01/08 12:08:41;;;;;;;10.90;2.78;;;9.50;99.90;;;;;;4954685;28;20950;-69
2023/01/08 12:11:20;;;;;;;11.00;2.65;;;9.50;99.90;;;;;;4955951;28;20053;-69
2023/01/08 12:13:51;;;;;;;10.63;2.72;;;9.40;99.90;;;;;;4955503;28;20561;-69
2023/01/08 12:16:48;;;;;;;11.93;3.85;;;9.40;99.90;;;;;;4954243;28;20057;-67
2023/01/08 12:19:45;;;;;;;11.10;2.50;;;9.50;99.90;;;;;;4954833;28;20054;-69
2023/01/08 12:22:17;;;;;;;10.98;3.00;;;9.50;99.90;;;;;;4957315;28;20047;-67
2023/01/08 12:25:17;;;;;;;16.60;3.53;;;9.50;99.90;;;;;;4954003;28;20054;-69
2023/01/08 12:27:49;;;;;;;11.82;3.40;;;9.40;99.90;;;;;;4954654;28;20090;-70
2023/01/08 12:30:14;;;;;;;11.57;2.92;;;9.50;99.90;;;;;;4954611;28;20109;-69
2023/01/08 12:32:40;;;;;;;8.93;2.50;;;9.50;99.90;;;;;;4954158;28;20044;-70
2023/01/08 12:35:21;;;;;;;5.72;3.00;;;9.50;99.90;;;;;;4954205;28;20042;-69
2023/01/08 12:38:02;;;;;;;10.68;2.10;;;9.50;99.90;;;;;;4954197;28;20149;-67
2023/01/08 12:40:45;;;;;;;12.52;2.90;;;9.50;99.90;;;;;;4951372;28;20231;-69
2023/01/08 12:43:17;;;;;;;19.33;2.90;;;9.50;99.90;;;;;;4953499;28;20248;-69
2023/01/08 12:45:45;;;;;;;8.73;2.37;;;9.50;99.90;;;;;;4955146;28;20074;-69
2023/01/08 12:48:18;;;;;;;8.63;2.53;;;9.50;99.90;;;;;;4954628;28;20039;-68
2023/01/08 12:50:43;;;;;;;7.50;2.40;;;9.50;99.90;;;;;;4954722;28;20050;-69
2023/01/08 12:53:25;;;;;;;8.40;2.95;;;9.50;99.90;;;;;;4952862;28;20693;-69
2023/01/08 12:55:59;;;;;;;8.77;2.65;;;9.40;99.90;;;;;;4972483;28;20251;-69
2023/01/08 13:01:19;;;;;;;13.98;2.15;;;9.50;99.90;;;;;;4906354;23;20301;-74
2023/01/08 13:03:45;;;;;;;8.85;2.55;;;9.50;99.90;;;;;;4857395;28;20591;-76
2023/01/08 13:06:14;;;;;;;10.05;3.22;;;9.50;99.90;;;;;;4873849;28;20293;-77
2023/01/08 13:08:44;;;;;;;10.95;2.90;;;9.60;99.90;;;;;;4877618;28;20360;-73
2023/01/08 13:11:11;;;;;;;7.88;2.97;;;9.60;99.90;;;;;;4879212;28;20363;-73